createdAt,value
2022-11-22T00:00:42.244Z,16.05
2022-11-22T00:03:09.795Z,17.92
2022-11-22T00:05:37.089Z,18.33
2022-11-22T00:08:04.563Z,18.95
2022-11-22T00:10:31.449Z,20.38
2022-11-22T00:12:58.878Z,21.65
2022-11-22T00:15:26.522Z,21.90
2022-11-22T00:17:53.334Z,23.00
2022-11-22T00:20:20.397Z,21.60
2022-11-22T00:22:47.323Z,23.60
2022-11-22T00:25:15.233Z,25.90
2022-11-22T00:27:42.137Z,24.00
2022-11-22T00:30:09.856Z,25.73
2022-11-22T00:32:36.785Z,23.92
2022-11-22T00:35:04.585Z,23.45
2022-11-22T00:37:31.615Z,24.52
2022-11-22T00:39:58.439Z,23.13
2022-11-22T00:42:25.255Z,21.92
2022-11-22T00:44:52.286Z,21.30
2022-11-22T00:47:19.202Z,21.20
2022-11-22T00:49:45.993Z,21.52
2022-11-22T00:52:12.816Z,20.23
2022-11-22T00:54:39.636Z,20.10
2022-11-22T00:57:06.554Z,19.27
2022-11-22T00:59:33.752Z,19.38
2022-11-22T01:02:00.555Z,18.70
2022-11-22T01:04:27.373Z,18.15
2022-11-22T01:06:54.253Z,17.92
2022-11-22T01:09:23.202Z,17.17
2022-11-22T01:11:50.747Z,17.00
2022-11-22T01:14:18.641Z,16.95
2022-11-22T01:16:45.920Z,16.88
2022-11-22T01:19:13.112Z,16.00
2022-11-22T01:21:40.748Z,16.95
2022-11-22T01:24:08.001Z,16.10
2022-11-22T01:26:35.806Z,16.20
2022-11-22T01:29:02.688Z,15.93
2022-11-22T01:31:30.296Z,16.10
2022-11-22T01:33:59.262Z,14.43
2022-11-22T01:36:27.953Z,14.52
2022-11-22T01:38:55.412Z,13.75
2022-11-22T01:41:22.810Z,13.07
2022-11-22T01:43:50.459Z,12.82
2022-11-22T01:46:38.689Z,11.52
2022-11-22T01:49:17.187Z,12.27
2022-11-22T01:51:50.106Z,11.68
2022-11-22T01:54:23.145Z,11.20
2022-11-22T01:56:57.643Z,11.18
2022-11-22T01:59:29.041Z,10.55
2022-11-22T02:01:57.190Z,9.38
2022-11-22T02:04:26.291Z,11.00
2022-11-22T02:07:04.330Z,11.25
2022-11-22T02:09:33.097Z,10.80
2022-11-22T02:12:04.328Z,10.68
2022-11-22T02:14:32.146Z,12.00
2022-11-22T02:16:58.904Z,12.32
2022-11-22T02:20:02.601Z,12.88
2022-11-22T02:22:50.117Z,11.60
2022-11-22T02:25:41.755Z,13.35
2022-11-22T02:28:14.469Z,12.75
2022-11-22T02:30:42.373Z,12.52
2022-11-22T02:33:10.157Z,14.23
2022-11-22T02:35:37.066Z,13.85
2022-11-22T02:38:23.397Z,13.48
2022-11-22T02:40:58.561Z,14.52
2022-11-22T02:43:31.652Z,13.80
2022-11-22T02:46:12.146Z,15.23
2022-11-22T02:48:43.660Z,14.38
2022-11-22T02:51:16.817Z,14.10
2022-11-22T02:53:44.827Z,15.10
2022-11-22T02:56:11.825Z,14.48
2022-11-22T02:58:38.807Z,14.93
2022-11-22T03:01:05.734Z,16.02
2022-11-22T03:03:33.448Z,15.77
2022-11-22T03:06:00.406Z,15.98
2022-11-22T03:08:27.161Z,16.55
2022-11-22T03:10:54.126Z,17.55
2022-11-22T03:13:20.834Z,16.77
2022-11-22T03:15:48.219Z,18.23
2022-11-22T03:18:14.962Z,17.73
2022-11-22T03:20:41.858Z,17.65
2022-11-22T03:23:08.636Z,18.05
2022-11-22T03:25:39.530Z,17.17
2022-11-22T03:28:06.793Z,17.77
2022-11-22T03:30:34.045Z,18.17
2022-11-22T03:33:00.798Z,17.23
2022-11-22T03:35:27.658Z,18.30
2022-11-22T03:37:54.431Z,18.10
2022-11-22T03:40:21.437Z,17.58
2022-11-22T03:42:48.323Z,18.27
2022-11-22T03:45:15.134Z,18.20
2022-11-22T03:47:41.870Z,17.50
2022-11-22T03:50:09.297Z,17.02
2022-11-22T03:52:36.675Z,17.90
2022-11-22T03:55:03.567Z,18.45
2022-11-22T03:57:30.355Z,18.42
2022-11-22T03:59:57.364Z,18.38
2022-11-22T04:02:24.136Z,18.90
2022-11-22T04:04:50.898Z,21.27
2022-11-22T04:07:17.704Z,20.13
2022-11-22T04:09:44.517Z,21.65
2022-11-22T04:12:11.277Z,20.77
2022-11-22T04:14:56.593Z,22.30
2022-11-22T04:20:42.771Z,23.23
2022-11-22T04:23:11.813Z,22.80
2022-11-22T04:25:42.641Z,24.20
2022-11-22T04:28:11.624Z,23.90
2022-11-22T04:30:57.403Z,24.92
2022-11-22T04:33:25.207Z,26.15
2022-11-22T04:35:53.064Z,26.88
2022-11-22T04:38:20.073Z,27.60
2022-11-22T04:40:47.630Z,26.42
2022-11-22T04:43:43.015Z,25.10
2022-11-22T04:46:15.002Z,24.60
2022-11-22T04:48:42.436Z,25.20
2022-11-22T04:51:47.173Z,24.35
2022-11-22T04:54:13.985Z,23.05
2022-11-22T04:56:40.749Z,24.77
2022-11-22T04:59:07.553Z,23.60
2022-11-22T05:01:34.759Z,25.65
2022-11-22T05:04:01.543Z,23.75
2022-11-22T05:06:28.310Z,25.23
2022-11-22T05:08:55.278Z,24.95
2022-11-22T05:11:22.057Z,26.40
2022-11-22T05:13:48.806Z,28.98
2022-11-22T05:16:16.342Z,28.63
2022-11-22T05:18:43.352Z,28.73
2022-11-22T05:21:14.903Z,29.42
2022-11-22T05:23:56.708Z,27.33
2022-11-22T05:26:36.290Z,27.73
2022-11-22T05:29:11.361Z,25.65
2022-11-22T05:31:40.203Z,26.08
2022-11-22T05:34:07.510Z,27.10
2022-11-22T05:36:35.195Z,27.73
2022-11-22T05:39:02.333Z,25.42
2022-11-22T05:41:29.388Z,26.35
2022-11-22T05:43:56.929Z,26.90
2022-11-22T05:46:27.181Z,27.90
2022-11-22T05:48:56.560Z,28.70
2022-11-22T05:51:32.533Z,27.90
2022-11-22T05:54:02.372Z,29.00
2022-11-22T05:56:29.143Z,29.20
2022-11-22T05:58:55.943Z,29.23
2022-11-22T06:01:24.760Z,31.85
2022-11-22T06:03:52.435Z,31.45
2022-11-22T06:06:19.548Z,29.30
2022-11-22T06:08:48.385Z,29.30
2022-11-22T06:11:23.630Z,28.85
2022-11-22T06:16:19.959Z,28.58
2022-11-22T06:18:47.838Z,29.00
2022-11-22T06:21:19.174Z,28.83
2022-11-22T06:23:46.275Z,27.70
2022-11-22T06:26:16.649Z,28.00
2022-11-22T06:28:44.773Z,28.67
2022-11-22T06:31:24.390Z,30.30
2022-11-22T06:33:54.590Z,28.55
2022-11-22T06:36:25.116Z,30.67
2022-11-22T06:38:52.513Z,28.85
2022-11-22T06:41:25.476Z,31.13
2022-11-22T06:43:54.050Z,32.90
2022-11-22T06:46:24.290Z,30.23
2022-11-22T06:48:51.802Z,31.00
2022-11-22T06:51:27.599Z,30.20
2022-11-22T06:53:55.687Z,30.38
2022-11-22T06:56:25.175Z,32.97
2022-11-22T06:58:53.631Z,31.08
2022-11-22T07:01:23.713Z,30.73
2022-11-22T07:03:51.610Z,33.22
2022-11-22T07:06:19.652Z,32.17
2022-11-22T07:08:47.292Z,32.63
2022-11-22T07:11:24.671Z,30.58
2022-11-22T07:13:52.675Z,29.17
2022-11-22T07:16:21.778Z,32.60
2022-11-22T07:18:49.702Z,31.65
2022-11-22T07:21:23.081Z,30.80
2022-11-22T07:23:52.566Z,28.77
2022-11-22T07:26:22.380Z,31.27
2022-11-22T07:28:49.592Z,29.45
2022-11-22T07:31:18.390Z,31.30
2022-11-22T07:33:45.715Z,31.85
2022-11-22T07:36:22.150Z,30.38
2022-11-22T07:38:50.252Z,28.27
2022-11-22T07:41:19.811Z,28.27
2022-11-22T07:43:47.383Z,29.63
2022-11-22T07:46:34.561Z,30.20
2022-11-22T07:49:02.941Z,29.98
2022-11-22T07:51:30.198Z,28.83
2022-11-22T07:53:58.000Z,28.40
2022-11-22T07:56:24.888Z,26.92
2022-11-22T07:58:51.940Z,26.95
2022-11-22T08:01:20.011Z,28.55
2022-11-22T08:03:47.584Z,26.13
2022-11-22T08:06:15.957Z,28.23
2022-11-22T08:08:44.433Z,27.13
2022-11-22T08:11:12.352Z,26.77
2022-11-22T08:13:40.014Z,26.85
2022-11-22T08:16:14.871Z,26.17
2022-11-22T08:21:14.533Z,28.02
2022-11-22T08:23:43.239Z,27.67
2022-11-22T08:26:13.670Z,31.80
2022-11-22T08:28:42.096Z,29.25
2022-11-22T08:31:19.930Z,27.83
2022-11-22T08:33:47.998Z,29.48
2022-11-22T08:36:14.910Z,29.58
2022-11-22T08:38:42.167Z,27.70
2022-11-22T08:41:08.977Z,28.33
2022-11-22T08:43:36.079Z,26.35
2022-11-22T08:46:03.915Z,27.95
2022-11-22T08:48:34.946Z,28.13
2022-11-22T08:51:05.535Z,30.75
2022-11-22T08:53:36.114Z,31.65
2022-11-22T08:56:05.430Z,29.17
2022-11-22T08:58:34.206Z,27.75
2022-11-22T09:01:07.134Z,27.25
2022-11-22T09:03:35.912Z,27.20
2022-11-22T09:09:15.010Z,27.42
2022-11-22T09:11:44.131Z,25.40
2022-11-22T09:14:10.886Z,26.23
2022-11-22T09:16:37.745Z,30.42
2022-11-22T09:19:04.649Z,26.85
2022-11-22T09:21:31.406Z,29.00
2022-11-22T09:23:58.181Z,26.25
2022-11-22T09:26:25.392Z,27.25
2022-11-22T09:28:53.445Z,27.70
2022-11-22T09:31:22.199Z,28.65
2022-11-22T09:33:50.243Z,25.98
2022-11-22T09:36:22.765Z,35.03
2022-11-22T09:38:50.836Z,25.63
2022-11-22T09:41:17.545Z,26.40
2022-11-22T09:44:21.014Z,23.08
2022-11-22T09:47:30.274Z,24.63
2022-11-22T09:50:19.227Z,22.20
2022-11-22T09:53:03.898Z,23.83
2022-11-22T09:55:36.877Z,15.90
2022-11-22T09:58:31.027Z,20.70
2022-11-22T10:01:10.841Z,18.52
2022-11-22T10:03:56.289Z,19.38
2022-11-22T10:09:10.978Z,16.20
2022-11-22T10:11:55.695Z,16.52
2022-11-22T10:14:47.174Z,16.77
2022-11-22T10:17:50.762Z,15.25
2022-11-22T10:20:31.950Z,16.35
2022-11-22T10:22:59.769Z,14.73
2022-11-22T10:25:46.022Z,15.38
2022-11-22T10:28:32.684Z,12.77
2022-11-22T10:31:17.876Z,13.27
2022-11-22T10:33:59.663Z,14.45
2022-11-22T10:36:42.692Z,13.75
2022-11-22T10:39:49.202Z,13.45
2022-11-22T10:42:27.372Z,15.90
2022-11-22T10:45:10.313Z,13.82
2022-11-22T10:47:45.067Z,13.98
2022-11-22T10:50:30.905Z,16.42
2022-11-22T10:53:05.765Z,15.70
2022-11-22T10:58:32.265Z,14.77
2022-11-22T11:01:35.172Z,14.50
2022-11-22T11:04:05.672Z,13.07
2022-11-22T11:07:11.082Z,13.20
2022-11-22T11:12:43.264Z,13.18
2022-11-22T11:15:38.438Z,13.32
2022-11-22T11:18:13.921Z,12.57
2022-11-22T11:20:43.887Z,12.48
2022-11-22T11:23:15.727Z,14.15
2022-11-22T11:25:46.124Z,12.50
2022-11-22T11:28:23.377Z,12.48
2022-11-22T11:31:08.548Z,11.50
2022-11-22T11:33:38.937Z,12.25
2022-11-22T11:36:22.508Z,11.98
2022-11-22T11:38:56.700Z,11.90
2022-11-22T11:41:32.705Z,12.27
2022-11-22T11:44:02.875Z,11.90
2022-11-22T11:46:45.729Z,11.10
2022-11-22T11:49:25.283Z,11.60
2022-11-22T11:52:02.167Z,12.48
2022-11-22T11:54:43.820Z,10.60
2022-11-22T11:57:21.970Z,11.65
2022-11-22T11:59:54.066Z,11.00
2022-11-22T12:02:40.889Z,10.18
2022-11-22T12:05:13.630Z,10.15
2022-11-22T12:07:41.994Z,9.80
2022-11-22T12:10:39.752Z,9.50
2022-11-22T12:13:27.757Z,9.27
2022-11-22T12:16:01.102Z,11.57
2022-11-22T12:18:27.865Z,10.02
2022-11-22T12:21:03.279Z,10.20
2022-11-22T12:24:34.919Z,10.02
2022-11-22T12:26:56.468Z,9.20
2022-11-22T12:29:23.902Z,9.75
2022-11-22T12:32:13.306Z,9.15
2022-11-22T12:35:12.168Z,10.02
2022-11-22T12:37:48.023Z,8.55
2022-11-22T12:40:26.789Z,8.73
2022-11-22T12:42:59.754Z,9.68
2022-11-22T12:45:41.180Z,8.45
2022-11-22T12:48:21.598Z,9.10
2022-11-22T12:51:01.315Z,9.07
2022-11-22T12:53:31.747Z,8.73
2022-11-22T12:56:09.948Z,8.40
2022-11-22T12:58:52.486Z,7.72
2022-11-22T13:01:36.239Z,8.02
2022-11-22T13:04:09.452Z,7.90
2022-11-22T13:07:02.502Z,7.25
2022-11-22T13:09:37.238Z,8.38
2022-11-22T13:12:21.100Z,8.35
2022-11-22T13:14:56.350Z,7.95
2022-11-22T13:17:25.228Z,6.95
2022-11-22T13:20:07.175Z,8.27
2022-11-22T13:23:02.157Z,8.05
2022-11-22T13:26:14.697Z,8.70
2022-11-22T13:28:44.605Z,7.78
2022-11-22T13:31:11.677Z,7.70
2022-11-22T13:33:43.642Z,7.95
2022-11-22T13:36:29.608Z,7.03
2022-11-22T13:38:59.382Z,7.28
2022-11-22T13:41:36.734Z,7.03
2022-11-22T13:44:39.536Z,6.95
2022-11-22T13:47:24.606Z,7.00
2022-11-22T13:49:54.029Z,7.15
2022-11-22T13:52:20.885Z,6.95
2022-11-22T13:54:47.725Z,6.63
2022-11-22T13:57:38.577Z,6.00
2022-11-22T14:00:14.509Z,6.38
2022-11-22T14:03:12.018Z,7.43
2022-11-22T14:05:42.044Z,6.50
2022-11-22T14:08:42.467Z,6.57
2022-11-22T14:11:49.006Z,5.93
2022-11-22T14:14:42.167Z,5.22
2022-11-22T14:17:37.105Z,5.70
2022-11-22T14:20:20.409Z,4.80
2022-11-22T14:23:34.468Z,4.97
2022-11-22T14:26:03.843Z,5.20
2022-11-22T14:29:49.405Z,5.35
2022-11-22T14:32:23.093Z,5.60
2022-11-22T14:35:04.823Z,4.75
2022-11-22T14:37:32.003Z,4.97
2022-11-22T14:40:08.745Z,5.45
2022-11-22T14:42:43.608Z,5.10
2022-11-22T14:45:10.419Z,6.43
2022-11-22T14:47:58.670Z,6.55
2022-11-22T14:50:37.439Z,6.70
2022-11-22T14:53:30.261Z,5.97
2022-11-22T14:56:16.367Z,7.05
2022-11-22T14:59:36.879Z,6.00
2022-11-22T15:02:55.464Z,5.63
2022-11-22T15:09:20.088Z,4.68
2022-11-22T15:09:46.973Z,4.18
2022-11-22T15:12:40.773Z,4.30
2022-11-22T15:57:35.811Z,4.70
2022-11-22T16:00:03.511Z,4.78
2022-11-22T16:02:32.464Z,6.32
2022-11-22T16:06:05.998Z,5.00
2022-11-22T16:07:57.018Z,4.90
2022-11-22T16:10:39.194Z,4.25
2022-11-22T16:13:21.183Z,4.60
2022-11-22T16:16:27.159Z,5.70
2022-11-22T16:18:54.576Z,5.00
2022-11-22T16:21:29.047Z,4.68
2022-11-22T16:24:19.452Z,4.47
2022-11-22T16:26:56.244Z,4.05
2022-11-22T16:29:33.020Z,3.70
2022-11-22T16:32:06.722Z,3.85
2022-11-22T16:34:33.538Z,4.68
2022-11-22T16:37:00.510Z,4.88
2022-11-22T16:39:27.728Z,6.28
2022-11-22T16:41:54.562Z,6.03
2022-11-22T16:44:22.145Z,6.38
2022-11-22T16:46:48.953Z,6.28
2022-11-22T16:49:18.917Z,6.57
2022-11-22T16:51:50.289Z,6.47
2022-11-22T16:54:21.614Z,7.97
2022-11-22T16:56:48.449Z,8.60
2022-11-22T16:59:15.525Z,9.07
2022-11-22T17:01:43.830Z,9.48
2022-11-22T17:04:23.487Z,9.50
2022-11-22T17:06:51.389Z,9.30
2022-11-22T17:09:18.243Z,9.43
2022-11-22T17:11:45.724Z,10.75
2022-11-22T17:14:15.672Z,11.02
2022-11-22T17:16:43.287Z,8.90
2022-11-22T17:19:30.251Z,9.20
2022-11-22T17:21:57.230Z,10.05
2022-11-22T17:24:24.100Z,9.13
2022-11-22T17:26:50.925Z,9.88
2022-11-22T17:29:43.269Z,9.00
2022-11-22T17:32:05.244Z,8.45
2022-11-22T17:34:32.392Z,9.85
2022-11-22T17:36:59.341Z,8.57
2022-11-22T17:39:26.114Z,8.23
2022-11-22T17:41:52.880Z,8.50
2022-11-22T17:44:19.779Z,8.18
2022-11-22T17:46:47.354Z,8.07
2022-11-22T17:49:16.354Z,8.35
2022-11-22T17:51:43.371Z,8.50
2022-11-22T17:54:10.319Z,8.65
2022-11-22T17:56:37.806Z,9.32
2022-11-22T17:59:05.477Z,9.15
2022-11-22T18:01:32.492Z,10.35
2022-11-22T18:03:59.362Z,10.70
2022-11-22T18:06:29.636Z,10.25
2022-11-22T18:08:56.416Z,11.60
2022-11-22T18:11:23.230Z,12.48
2022-11-22T18:13:49.976Z,10.52
2022-11-22T18:16:18.288Z,10.57
2022-11-22T18:18:56.700Z,11.60
2022-11-22T18:21:24.796Z,12.85
2022-11-22T18:23:51.674Z,12.43
2022-11-22T18:31:53.215Z,12.27
2022-11-22T18:34:22.089Z,11.65
2022-11-22T18:37:00.836Z,11.85
2022-11-22T18:39:38.548Z,12.45
2022-11-22T18:42:12.497Z,10.70
2022-11-22T18:44:39.311Z,10.25
2022-11-22T18:47:06.282Z,10.10
2022-11-22T18:49:33.800Z,9.95
2022-11-22T18:52:01.126Z,11.23
2022-11-22T18:54:27.936Z,10.80
2022-11-22T18:56:54.875Z,11.52
2022-11-22T18:59:21.737Z,13.35
2022-11-22T19:01:48.610Z,12.40
2022-11-22T19:04:16.082Z,11.90
2022-11-22T19:06:44.429Z,9.90
2022-11-22T19:09:11.422Z,11.57
2022-11-22T19:11:38.440Z,11.55
2022-11-22T19:14:05.996Z,11.85
2022-11-22T19:16:32.935Z,11.98
2022-11-22T19:19:00.460Z,12.23
2022-11-22T19:21:28.899Z,12.85
2022-11-22T19:23:56.964Z,12.90
2022-11-22T19:26:27.088Z,13.95
2022-11-22T19:28:55.987Z,14.63
2022-11-22T19:31:28.029Z,20.02
2022-11-22T19:33:55.357Z,19.30
2022-11-22T19:36:30.750Z,28.48
2022-11-22T19:38:59.815Z,32.85
2022-11-22T19:41:27.097Z,25.40
2022-11-22T19:43:55.973Z,21.05
2022-11-22T19:46:23.605Z,17.50
2022-11-22T19:48:52.835Z,15.02
2022-11-22T19:51:20.035Z,16.00
2022-11-22T19:53:47.087Z,15.45
2022-11-22T19:56:17.517Z,13.15
2022-11-22T19:58:50.298Z,14.65
2022-11-22T20:01:17.756Z,14.48
2022-11-22T20:03:45.073Z,12.07
2022-11-22T20:06:14.473Z,12.93
2022-11-22T20:08:41.689Z,15.73
2022-11-22T20:11:15.641Z,13.60
2022-11-22T20:13:46.241Z,15.68
2022-11-22T20:16:28.837Z,14.30
2022-11-22T20:19:05.288Z,15.25
2022-11-22T20:21:34.456Z,19.63
2022-11-22T20:24:02.456Z,23.10
2022-11-22T20:26:31.202Z,26.40
2022-11-22T20:29:05.025Z,26.35
2022-11-22T20:31:34.312Z,26.33
2022-11-22T20:34:02.017Z,25.75
2022-11-22T20:36:32.613Z,21.95
2022-11-22T20:39:01.899Z,29.23
2022-11-22T20:41:32.466Z,27.70
2022-11-22T20:43:59.225Z,32.55
2022-11-22T20:46:28.560Z,29.10
2022-11-22T20:48:56.813Z,30.05
2022-11-22T20:51:29.039Z,24.27
2022-11-22T20:53:57.437Z,19.92
2022-11-22T20:56:25.508Z,19.85
2022-11-22T20:58:52.671Z,18.83
2022-11-22T21:01:23.476Z,17.63
2022-11-22T21:03:51.468Z,18.40
2022-11-22T21:06:21.348Z,16.05
2022-11-22T21:08:48.588Z,16.00
2022-11-22T21:11:22.223Z,17.15
2022-11-22T21:13:49.706Z,15.07
2022-11-22T21:16:24.446Z,16.13
2022-11-22T21:19:05.207Z,15.90
2022-11-22T21:21:34.908Z,16.13
2022-11-22T21:24:03.970Z,15.73
2022-11-22T21:26:32.021Z,16.85
2022-11-22T21:28:59.898Z,17.85
2022-11-22T21:31:27.989Z,22.48
2022-11-22T21:33:54.833Z,20.23
2022-11-22T21:36:21.871Z,19.30
2022-11-22T21:38:49.207Z,15.90
2022-11-22T21:44:07.587Z,16.48
2022-11-22T21:46:34.427Z,16.23
2022-11-22T21:49:01.279Z,14.70
2022-11-22T21:51:28.531Z,15.70
2022-11-22T21:54:00.091Z,15.43
2022-11-22T21:56:27.340Z,14.68
2022-11-22T21:58:54.617Z,16.20
2022-11-22T22:01:22.523Z,16.60
2022-11-22T22:03:49.735Z,16.58
2022-11-22T22:06:16.561Z,16.00
2022-11-22T22:08:43.369Z,15.20
2022-11-22T22:11:10.259Z,15.30
2022-11-22T22:13:37.370Z,15.63
2022-11-22T22:16:12.849Z,16.50
2022-11-22T22:18:40.058Z,15.57
2022-11-22T22:21:09.549Z,16.60
2022-11-22T22:23:38.734Z,16.17
2022-11-22T22:26:09.109Z,15.70
2022-11-22T22:28:38.494Z,16.92
2022-11-22T22:31:17.514Z,15.85
2022-11-22T22:33:45.863Z,15.32
2022-11-22T22:36:13.702Z,12.55
2022-11-22T22:38:40.961Z,12.88
2022-11-22T22:41:12.126Z,11.43
2022-11-22T22:43:42.228Z,13.60
2022-11-22T22:46:21.266Z,13.48
2022-11-22T22:48:49.818Z,12.20
2022-11-22T22:51:30.692Z,12.65
2022-11-22T22:54:00.695Z,11.23
2022-11-22T22:56:30.265Z,9.60
2022-11-22T22:58:58.509Z,10.13
2022-11-22T23:01:30.114Z,11.27
2022-11-22T23:03:59.534Z,12.27
2022-11-22T23:06:29.381Z,10.75
2022-11-22T23:08:56.869Z,12.75
2022-11-22T23:11:48.305Z,12.02
2022-11-22T23:14:19.229Z,11.68
2022-11-22T23:16:46.349Z,10.18
2022-11-22T23:19:13.593Z,11.25
2022-11-22T23:21:40.947Z,10.23
2022-11-22T23:24:08.864Z,11.15
2022-11-22T23:26:36.507Z,9.13
2022-11-22T23:29:04.386Z,10.55
2022-11-22T23:31:31.700Z,10.30
2022-11-22T23:34:01.188Z,10.68
2022-11-22T23:36:29.251Z,10.77
2022-11-22T23:38:56.257Z,10.38
2022-11-22T23:41:25.118Z,11.07
2022-11-22T23:43:54.556Z,11.35
2022-11-22T23:46:22.546Z,12.00
2022-11-22T23:48:57.242Z,10.82
2022-11-22T23:51:25.421Z,10.50
2022-11-22T23:54:00.924Z,10.98
2022-11-22T23:56:29.464Z,11.32
2022-11-22T23:58:59.528Z,10.65
